Time;durP1;ratioP1;P1;durP2;ratioP2;P2;SDS_P1;SDS_P2;PMS_P1;PMS_P2;Temp;Humidity;BMP_temperature;BMP_pressure;BME280_temperature;BME280_humidity;BME280_pressure;Samples;Min_cycle;Max_cycle;Signal;HPM_P1;HPM_P2
2023/08/13 00:01:00;;;;;;;2.97;1.00;;;;;;;19.55;100.00;98716.38;15299894;19;20359;-57
2023/08/13 00:06:25;;;;;;;2.05;0.88;;;;;;;19.56;100.00;98716.16;15294900;19;20025;-58
2023/08/13 00:11:49;;;;;;;2.40;1.00;;;;;;;19.54;100.00;98731.94;15299722;19;20022;-59
2023/08/13 00:17:18;;;;;;;2.22;0.90;;;;;;;19.54;100.00;98733.84;15296076;19;20352;-57
2023/08/13 00:22:42;;;;;;;1.15;0.93;;;;;;;19.53;100.00;98721.22;15296089;19;20014;-57
2023/08/13 00:28:14;;;;;;;2.15;0.80;;;;;;;19.54;100.00;98718.28;15295895;19;20497;-56
2023/08/13 00:33:42;;;;;;;2.03;0.88;;;;;;;19.56;100.00;98720.81;15297387;19;20376;-59
2023/08/13 00:39:06;;;;;;;1.92;0.80;;;;;;;19.53;100.00;98730.25;15293198;19;20389;-57
2023/08/13 00:44:31;;;;;;;2.65;0.90;;;;;;;19.53;100.00;98732.97;15295415;19;20014;-55
2023/08/13 00:49:59;;;;;;;2.00;0.90;;;;;;;19.47;100.00;98741.19;15300418;19;20037;-57
2023/08/13 00:55:25;;;;;;;1.58;0.95;;;;;;;19.43;100.00;98750.88;15292461;19;20018;-58
2023/08/13 01:00:49;;;;;;;1.80;0.85;;;;;;;19.38;100.00;98766.00;15296516;19;20011;-58
2023/08/13 01:06:24;;;;;;;1.92;0.85;;;;;;;19.34;100.00;98789.34;15298212;19;20020;-57
2023/08/13 01:12:01;;;;;;;2.75;0.95;;;;;;;19.32;100.00;98799.63;15294881;19;20675;-59
2023/08/13 01:17:28;;;;;;;1.40;0.80;;;;;;;19.25;100.00;98815.16;15293834;19;20033;-59
2023/08/13 01:22:57;;;;;;;2.75;0.90;;;;;;;19.18;100.00;98825.25;15295245;19;20090;-54
2023/08/13 01:28:36;;;;;;;1.15;0.93;;;;;;;19.15;100.00;98828.38;15289295;19;20014;-54
2023/08/13 01:34:04;;;;;;;1.88;0.90;;;;;;;19.07;100.00;98832.13;15294512;19;20010;-56
2023/08/13 01:39:33;;;;;;;2.63;1.00;;;;;;;19.02;100.00;98802.72;15291217;19;20035;-55
2023/08/13 01:44:58;;;;;;;1.98;0.90;;;;;;;19.02;100.00;98796.44;15291174;19;20370;-55
2023/08/13 01:50:23;;;;;;;1.67;1.00;;;;;;;19.00;100.00;98817.66;15293661;19;20428;-57
2023/08/13 01:55:51;;;;;;;2.38;1.25;;;;;;;18.97;100.00;98827.09;15293859;19;20039;-57
2023/08/13 02:01:15;;;;;;;1.58;1.10;;;;;;;18.92;100.00;98835.03;15285101;19;20450;-55
2023/08/13 02:06:40;;;;;;;1.75;1.10;;;;;;;18.90;100.00;98828.91;15290707;19;20025;-57
2023/08/13 02:12:07;;;;;;;2.40;1.30;;;;;;;18.88;100.00;98850.97;15292076;19;20016;-56
2023/08/13 02:17:32;;;;;;;3.67;1.30;;;;;;;18.83;100.00;98845.28;15291515;19;20046;-55
2023/08/13 02:22:59;;;;;;;2.20;1.30;;;;;;;18.81;100.00;98843.81;15282874;19;20010;-53
2023/08/13 02:28:33;;;;;;;1.77;1.20;;;;;;;18.78;100.00;98836.88;15288104;19;20025;-55
2023/08/13 02:33:58;;;;;;;1.30;1.00;;;;;;;18.76;100.00;98825.31;15284985;19;20019;-54
2023/08/13 02:39:22;;;;;;;1.42;0.90;;;;;;;18.75;100.00;98824.47;15287378;19;20022;-55
2023/08/13 02:44:50;;;;;;;3.47;1.27;;;;;;;18.73;100.00;98812.94;15288267;19;20037;-55
2023/08/13 02:50:15;;;;;;;1.73;1.10;;;;;;;18.72;100.00;98799.47;15290677;19;20018;-54
2023/08/13 02:55:40;;;;;;;1.85;1.05;;;;;;;18.69;100.00;98798.00;15288785;19;20089;-54
2023/08/13 03:01:07;;;;;;;1.77;1.08;;;;;;;18.69;100.00;98803.44;15289357;19;20077;-56
2023/08/13 03:06:32;;;;;;;1.67;1.08;;;;;;;18.72;100.00;98808.50;15281260;19;20011;-54
2023/08/13 03:11:56;;;;;;;1.98;1.00;;;;;;;18.70;100.00;98798.84;15287620;19;20018;-54
2023/08/13 03:17:25;;;;;;;1.48;1.00;;;;;;;18.69;100.00;98792.53;15285227;19;20046;-58
2023/08/13 03:22:51;;;;;;;1.10;1.00;;;;;;;18.68;100.00;98785.38;15294542;19;20021;-57
2023/08/13 03:28:23;;;;;;;3.42;0.90;;;;;;;18.63;100.00;98780.56;15297413;19;20481;-56
2023/08/13 03:33:58;;;;;;;1.83;1.02;;;;;;;18.58;100.00;98804.03;15286232;19;20018;-55
2023/08/13 03:39:23;;;;;;;1.42;1.10;;;;;;;18.53;100.00;98812.84;15276536;19;20018;-56
2023/08/13 03:44:48;;;;;;;1.58;1.13;;;;;;;18.47;100.00;98839.06;15284679;19;20022;-59
2023/08/13 03:50:16;;;;;;;2.05;1.23;;;;;;;18.45;100.00;98851.22;15283839;19;20475;-58
2023/08/13 03:55:41;;;;;;;1.77;1.20;;;;;;;18.42;100.00;98852.44;15285725;19;20490;-57
2023/08/13 04:01:12;;;;;;;1.42;1.05;;;;;;;18.40;100.00;98843.66;15283400;19;20077;-58
2023/08/13 04:06:43;;;;;;;2.47;1.10;;;;;;;18.39;100.00;98855.59;15281925;19;20022;-55
2023/08/13 04:12:07;;;;;;;4.70;1.13;;;;;;;18.38;100.00;98845.72;15277197;19;20011;-54
2023/08/13 04:17:32;;;;;;;1.42;1.00;;;;;;;18.37;100.00;98849.50;15285705;19;20094;-57
2023/08/13 04:23:00;;;;;;;1.00;0.90;;;;;;;18.37;100.00;98835.00;15284175;19;20019;-52
2023/08/13 04:28:30;;;;;;;1.65;1.40;;;;;;;18.36;100.00;98845.09;15281509;19;20014;-54
2023/08/13 04:33:56;;;;;;;2.42;1.30;;;;;;;18.37;100.00;98837.72;15298249;19;20010;-55
2023/08/13 04:39:24;;;;;;;2.60;1.10;;;;;;;18.36;100.00;98842.34;15294638;19;20014;-55
2023/08/13 04:44:48;;;;;;;1.35;1.10;;;;;;;18.39;100.00;98855.59;15290152;19;20471;-54
2023/08/13 04:50:15;;;;;;;1.40;1.02;;;;;;;18.38;100.00;98856.63;15296041;19;20379;-55
2023/08/13 04:55:42;;;;;;;1.92;1.02;;;;;;;18.42;100.00;98857.91;15296284;19;20021;-59
2023/08/13 05:01:08;;;;;;;1.33;1.15;;;;;;;18.43;100.00;98845.94;15295710;19;20014;-53
2023/08/13 05:06:36;;;;;;;1.60;0.90;;;;;;;18.46;100.00;98859.19;15295378;19;20073;-58
2023/08/13 05:12:04;;;;;;;2.13;1.20;;;;;;;18.49;100.00;98860.66;15295650;19;20014;-59
2023/08/13 05:17:28;;;;;;;2.47;1.30;;;;;;;18.54;100.00;98876.44;15288929;19;20018;-54
2023/08/13 05:22:53;;;;;;;2.78;1.10;;;;;;;18.57;100.00;98881.47;15294260;19;20018;-53
2023/08/13 05:28:20;;;;;;;1.27;1.00;;;;;;;18.64;100.00;98877.75;15291458;19;20022;-55
2023/08/13 05:33:46;;;;;;;2.85;1.33;;;;;;;18.73;100.00;98883.88;15293178;19;20026;-56
2023/08/13 05:39:11;;;;;;;2.25;1.00;;;;;;;18.83;100.00;98875.31;15291820;19;20371;-55
2023/08/13 05:44:39;;;;;;;1.40;1.00;;;;;;;18.90;100.00;98870.72;15293931;19;20013;-56
2023/08/13 05:50:03;;;;;;;3.80;1.00;;;;;;;18.99;100.00;98868.69;15288509;19;20018;-54
2023/08/13 05:55:29;;;;;;;1.42;1.10;;;;;;;19.09;100.00;98852.75;15291225;19;20465;-56
2023/08/13 06:00:56;;;;;;;2.33;1.10;;;;;;;19.25;100.00;98850.66;15294013;19;20018;-56
2023/08/13 06:06:21;;;;;;;1.85;0.98;;;;;;;19.35;100.00;98859.28;15291672;19;20485;-54
2023/08/13 06:11:47;;;;;;;1.25;0.80;;;;;;;19.50;100.00;98840.00;15291211;19;20741;-58
2023/08/13 06:17:15;;;;;;;0.80;0.80;;;;;;;19.62;100.00;98831.19;15290489;19;20018;-56
2023/08/13 06:22:39;;;;;;;2.10;1.00;;;;;;;19.73;100.00;98825.06;15280703;19;20026;-56
2023/08/13 06:28:11;;;;;;;1.00;0.90;;;;;;;19.87;100.00;98815.00;15287608;19;20069;-53
2023/08/13 06:33:39;;;;;;;1.85;0.90;;;;;;;20.06;100.00;98802.34;15287548;19;20010;-58
2023/08/13 06:39:04;;;;;;;2.40;0.70;;;;;;;20.25;100.00;98786.94;15287934;19;20014;-59
2023/08/13 06:44:29;;;;;;;2.47;0.90;;;;;;;20.35;100.00;98761.00;15286464;19;20493;-53
2023/08/13 06:49:57;;;;;;;1.40;0.90;;;;;;;20.49;100.00;98762.63;15285904;19;20022;-52
2023/08/13 06:55:22;;;;;;;1.65;0.90;;;;;;;20.60;100.00;98747.41;15288208;19;20015;-55
2023/08/13 07:00:49;;;;;;;1.45;0.75;;;;;;;20.72;100.00;98747.56;15285370;19;20668;-58
2023/08/13 07:06:17;;;;;;;1.13;0.70;;;;;;;20.81;100.00;98729.03;15301608;19;20359;-60
2023/08/13 07:11:42;;;;;;;1.25;0.70;;;;;;;20.88;100.00;98714.19;15290004;19;20014;-62
2023/08/13 07:17:07;;;;;;;1.15;0.70;;;;;;;20.96;100.00;98702.13;15289036;19;20214;-52
2023/08/13 07:22:34;;;;;;;1.25;0.70;;;;;;;21.12;100.00;98703.47;15281450;19;20366;-55
2023/08/13 07:28:00;;;;;;;1.00;0.65;;;;;;;21.27;100.00;98672.19;15282817;19;20019;-57
2023/08/13 07:33:26;;;;;;;0.85;0.60;;;;;;;21.43;100.00;98663.38;15281268;19;20827;-56
2023/08/13 07:38:53;;;;;;;1.52;0.70;;;;;;;21.49;100.00;98646.03;15278436;19;20498;-58
2023/08/13 07:44:18;;;;;;;0.95;0.60;;;;;;;21.64;100.00;98650.31;14771708;19;9999843;-56
2023/08/13 07:49:43;;;;;;;1.23;0.70;;;;;;;21.73;100.00;98651.69;15283814;19;20010;-63
2023/08/13 07:55:11;;;;;;;1.23;0.60;;;;;;;21.86;100.00;98651.53;15280913;19;20022;-55
2023/08/13 08:00:35;;;;;;;0.98;0.50;;;;;;;21.98;100.00;98642.53;15285609;19;20015;-56
2023/08/13 08:06:00;;;;;;;0.80;0.50;;;;;;;22.11;100.00;98653.34;15297131;19;20018;-55
2023/08/13 08:11:27;;;;;;;0.90;0.60;;;;;;;22.20;100.00;98653.88;15295540;19;20018;-60
2023/08/13 08:16:57;;;;;;;2.58;0.60;;;;;;;22.34;100.00;98661.94;15295947;19;20024;-56
2023/08/13 08:22:22;;;;;;;1.63;0.60;;;;;;;22.45;100.00;98658.44;15298589;19;20013;-56
2023/08/13 08:27:57;;;;;;;0.60;0.60;;;;;;;22.58;100.00;98658.22;15289786;19;20016;-59
2023/08/13 08:33:23;;;;;;;1.45;0.65;;;;;;;22.69;100.00;98620.88;15294070;19;20026;-61
2023/08/13 08:38:48;;;;;;;0.85;0.60;;;;;;;22.86;100.00;98643.00;15294651;19;20024;-59
2023/08/13 08:44:19;;;;;;;1.30;0.73;;;;;;;23.06;100.00;98648.16;15295654;19;20018;-56
2023/08/13 08:49:45;;;;;;;1.90;1.00;;;;;;;23.35;100.00;98618.06;15292248;19;20033;-59
2023/08/13 08:55:12;;;;;;;1.10;0.65;;;;;;;23.50;100.00;98619.50;15298362;19;20036;-60
2023/08/13 09:00:40;;;;;;;2.95;0.60;;;;;;;23.70;100.00;98617.19;15292212;19;20015;-57
2023/08/13 09:06:04;;;;;;;3.13;0.70;;;;;;;23.75;100.00;98621.13;15296142;19;20615;-62
2023/08/13 09:11:40;;;;;;;0.43;0.43;;;;;;;23.97;100.00;98602.09;15294043;19;20018;-62
2023/08/13 09:17:07;;;;;;;1.00;0.60;;;;;;;24.06;100.00;98608.03;15292047;19;20011;-60
2023/08/13 09:22:32;;;;;;;1.27;0.70;;;;;;;24.14;100.00;98613.16;15293225;19;20018;-61
2023/08/13 09:27:57;;;;;;;1.70;0.60;;;;;;;24.13;100.00;98590.28;15293303;19;20019;-60
2023/08/13 09:33:27;;;;;;;1.15;0.70;;;;;;;24.22;100.00;98587.97;15288930;19;20027;-62
2023/08/13 09:38:51;;;;;;;0.65;0.50;;;;;;;24.28;100.00;98600.78;15292016;19;20020;-61
2023/08/13 09:44:18;;;;;;;0.77;0.65;;;;;;;24.46;100.00;98594.19;15293382;19;20618;-62
2023/08/13 09:49:47;;;;;;;0.68;0.50;;;;;;;24.46;100.00;98598.88;15292012;19;20007;-60
2023/08/13 09:55:17;;;;;;;0.60;0.52;;;;;;;24.54;100.00;98595.69;15294424;19;20025;-61
2023/08/13 10:00:42;;;;;;;4.87;0.70;;;;;;;24.62;100.00;98587.06;15292458;19;20382;-60
2023/08/13 10:06:09;;;;;;;3.92;0.60;;;;;;;24.72;100.00;98580.88;15286161;19;20010;-61
2023/08/13 10:11:34;;;;;;;0.93;0.60;;;;;;;24.95;100.00;98567.19;15290907;19;20010;-61
2023/08/13 10:17:00;;;;;;;1.33;0.60;;;;;;;25.12;100.00;98569.94;15292652;19;20014;-60
2023/08/13 10:22:37;;;;;;;0.77;0.52;;;;;;;25.19;100.00;98573.34;15289739;19;20017;-60
2023/08/13 10:28:03;;;;;;;1.38;0.60;;;;;;;25.18;100.00;98571.66;15286046;19;20006;-58
2023/08/13 10:33:32;;;;;;;0.68;0.68;;;;;;;25.31;100.00;98560.28;15288088;19;20042;-61
2023/08/13 10:38:59;;;;;;;1.05;0.52;;;;;;;25.28;100.00;98562.72;15281267;19;20014;-62
2023/08/13 10:44:30;;;;;;;0.68;0.60;;;;;;;25.36;100.00;98556.75;15289503;19;20017;-61
2023/08/13 10:50:06;;;;;;;2.25;0.50;;;;;;;25.31;100.00;98560.28;15304349;19;20026;-62
2023/08/13 10:55:36;;;;;;;0.90;0.57;;;;;;;25.18;100.00;98542.19;15289437;19;20482;-61
2023/08/13 11:01:01;;;;;;;0.50;0.40;;;;;;;25.27;100.00;98548.09;15287299;19;20026;-61
2023/08/13 11:06:28;;;;;;;0.65;0.55;;;;;;;25.51;100.00;98534.91;15286846;19;20485;-60
2023/08/13 11:11:56;;;;;;;0.63;0.60;;;;;;;25.64;100.00;98541.16;15277329;19;20011;-62
2023/08/13 11:17:21;;;;;;;3.13;0.60;;;;;;;25.67;100.00;98529.59;15286483;19;20023;-60
2023/08/13 11:22:45;;;;;;;1.67;0.60;;;;;;;25.72;100.00;98526.06;15285286;19;20014;-63
2023/08/13 11:28:12;;;;;;;0.63;0.50;;;;;;;25.99;100.00;98515.84;15279514;19;20025;-62
2023/08/13 11:33:38;;;;;;;1.05;0.40;;;;;;;26.19;100.00;98510.84;15283319;19;20042;-60
2023/08/13 11:39:04;;;;;;;0.80;0.40;;;;;;;26.44;100.00;98516.59;15290594;19;20035;-60
2023/08/13 11:44:32;;;;;;;1.95;0.30;;;;;;;26.41;100.00;98508.81;15294852;19;20033;-61
2023/08/13 11:50:00;;;;;;;0.30;0.30;;;;;;;26.48;100.00;98510.53;15296391;19;20014;-64
2023/08/13 11:55:24;;;;;;;3.13;0.30;;;;;;;26.43;100.00;98503.06;15299598;19;20046;-63
2023/08/13 12:00:53;;;;;;;1.33;0.50;;;;;;;26.52;100.00;98495.13;15300625;19;20014;-63
2023/08/13 12:06:18;;;;;;;0.30;0.30;;;;;;;26.58;100.00;98499.56;15297525;19;20387;-62
2023/08/13 12:11:43;;;;;;;0.85;0.50;;;;;;;26.61;100.00;98508.16;15298129;19;20010;-56
2023/08/13 12:17:10;;;;;;;0.47;0.40;;;;;;;26.63;100.00;98493.25;15292986;19;20042;-56
2023/08/13 12:22:36;;;;;;;1.65;0.40;;;;;;;26.63;100.00;98485.81;15295201;19;20031;-57
2023/08/13 12:28:01;;;;;;;0.47;0.30;;;;;;;26.49;100.00;98477.13;15297202;19;20038;-56
2023/08/13 12:33:35;;;;;;;0.73;0.40;;;;;;;26.52;100.00;98479.38;15295471;19;20026;-55
2023/08/13 12:39:00;;;;;;;0.40;0.40;;;;;;;26.48;100.00;98483.75;15288012;19;20815;-60
2023/08/13 12:44:25;;;;;;;0.60;0.30;;;;;;;26.66;100.00;98478.91;15293785;19;20038;-55
2023/08/13 12:49:54;;;;;;;0.65;0.30;;;;;;;26.71;100.00;98473.41;15287818;19;20039;-60
2023/08/13 12:55:19;;;;;;;0.30;0.30;;;;;;;26.73;100.00;98477.59;15298150;19;20363;-57
2023/08/13 13:00:44;;;;;;;0.38;0.35;;;;;;;26.69;100.00;98479.22;15297204;19;20092;-55
2023/08/13 13:06:11;;;;;;;0.57;0.30;;;;;;;26.48;100.00;98485.69;15292070;19;20025;-61
2023/08/13 13:11:36;;;;;;;1.13;0.30;;;;;;;26.48;100.00;98471.88;15293250;19;20026;-54
2023/08/13 13:17:01;;;;;;;0.40;0.32;;;;;;;26.60;100.00;98475.28;15293237;19;20014;-56
2023/08/13 13:22:28;;;;;;;3.42;0.30;;;;;;;26.63;100.00;98474.75;15293811;19;20013;-54
2023/08/13 13:27:53;;;;;;;0.82;0.40;;;;;;;26.65;100.00;98471.72;15290900;19;20018;-58
2023/08/13 13:33:18;;;;;;;1.00;0.45;;;;;;;26.68;100.00;98471.19;15291468;19;20041;-58
2023/08/13 13:38:46;;;;;;;0.32;0.30;;;;;;;26.65;100.00;98453.19;15290826;19;20045;-58
2023/08/13 13:44:11;;;;;;;0.90;0.47;;;;;;;26.58;100.00;98463.66;15289483;19;20543;-60
2023/08/13 13:49:35;;;;;;;0.75;0.40;;;;;;;26.56;100.00;98463.94;15281605;19;20018;-59
2023/08/13 13:55:03;;;;;;;2.05;0.40;;;;;;;26.60;100.00;98465.03;15293674;19;20015;-60
2023/08/13 14:00:28;;;;;;;2.15;0.40;;;;;;;26.56;100.00;98457.56;15288781;19;20014;-53
2023/08/13 14:05:54;;;;;;;0.22;0.20;;;;;;;26.50;100.00;98445.63;15289482;19;20425;-52
2023/08/13 14:11:21;;;;;;;1.75;0.40;;;;;;;26.56;100.00;98446.50;15286667;19;20031;-60
2023/08/13 14:16:46;;;;;;;0.55;0.40;;;;;;;26.49;100.00;98443.16;15282921;19;20014;-56
2023/08/13 14:22:10;;;;;;;0.43;0.30;;;;;;;26.46;100.00;98442.56;15283477;19;20010;-55
2023/08/13 14:27:39;;;;;;;0.32;0.30;;;;;;;26.44;100.00;98443.94;15286973;19;20021;-55
2023/08/13 14:33:04;;;;;;;0.68;0.43;;;;;;;26.54;100.00;98432.13;15300550;19;20010;-60
2023/08/13 14:38:29;;;;;;;0.60;0.30;;;;;;;26.51;100.00;98432.69;15289392;19;20031;-59
2023/08/13 14:43:56;;;;;;;1.20;0.50;;;;;;;26.37;100.00;98435.88;15288423;19;20035;-61
2023/08/13 14:49:21;;;;;;;2.10;0.40;;;;;;;26.14;100.00;98445.34;15282644;19;20018;-56
2023/08/13 14:54:45;;;;;;;1.27;0.50;;;;;;;25.94;100.00;98437.69;15280411;19;20017;-56
2023/08/13 15:00:14;;;;;;;0.47;0.20;;;;;;;25.88;100.00;98433.22;15284170;19;20010;-54
2023/08/13 15:05:41;;;;;;;1.98;0.40;;;;;;;25.80;100.00;98429.00;15287481;19;20101;-57
2023/08/13 15:11:06;;;;;;;1.33;0.30;;;;;;;25.75;100.00;98435.31;15278696;19;20891;-55
2023/08/13 15:16:33;;;;;;;0.40;0.40;;;;;;;25.69;100.00;98423.41;15285247;19;20403;-52
2023/08/13 15:21:58;;;;;;;1.13;0.30;;;;;;;25.67;100.00;98419.25;15285963;19;20042;-56
2023/08/13 15:27:24;;;;;;;0.45;0.40;;;;;;;25.68;100.00;98415.38;15279925;19;20030;-58
2023/08/13 15:32:52;;;;;;;0.95;0.40;;;;;;;25.71;100.00;98420.38;15285430;19;20010;-59
2023/08/13 15:38:16;;;;;;;0.35;0.32;;;;;;;25.68;100.00;98404.34;15283928;19;20033;-62
2023/08/13 15:43:41;;;;;;;0.75;0.25;;;;;;;25.63;100.00;98407.91;15279983;19;20372;-62
2023/08/13 15:49:08;;;;;;;0.85;0.40;;;;;;;25.44;100.00;98409.34;15281995;19;20098;-60
2023/08/13 15:54:33;;;;;;;0.30;0.30;;;;;;;25.49;100.00;98401.94;15285412;19;20022;-62
2023/08/13 15:59:59;;;;;;;0.57;0.30;;;;;;;25.52;100.00;98412.47;15280959;19;20010;-62
2023/08/13 16:05:20;;;;;;;0.30;0.30;;;;;;;25.63;100.00;98418.09;15285219;19;20026;-61
2023/08/13 16:10:45;;;;;;;1.23;0.35;;;;;;;25.64;100.00;98403.19;15277390;19;20018;-61
2023/08/13 16:16:09;;;;;;;0.70;0.30;;;;;;;25.72;100.00;98411.00;15279558;19;20455;-60
2023/08/13 16:21:36;;;;;;;0.63;0.38;;;;;;;25.67;100.00;98402.69;15282815;19;20014;-62
2023/08/13 16:27:03;;;;;;;4.85;0.40;;;;;;;25.51;100.00;98399.75;15295297;19;20010;-61
2023/08/13 16:32:30;;;;;;;0.80;0.40;;;;;;;25.34;100.00;98404.53;15292359;19;20015;-59
2023/08/13 16:37:58;;;;;;;0.63;0.40;;;;;;;25.15;100.00;98399.34;15291395;19;20077;-62
2023/08/13 16:43:23;;;;;;;0.70;0.40;;;;;;;25.04;100.00;98405.81;15296307;19;20542;-60
2023/08/13 16:48:48;;;;;;;3.60;0.40;;;;;;;24.95;100.00;98407.34;15294501;19;20015;-60
2023/08/13 16:54:15;;;;;;;0.60;0.40;;;;;;;24.86;100.00;98394.03;15297025;19;20018;-62
2023/08/13 16:59:40;;;;;;;2.85;0.50;;;;;;;24.77;100.00;98396.38;15296823;19;20007;-60
2023/08/13 17:05:05;;;;;;;0.47;0.40;;;;;;;24.74;100.00;98398.81;15288982;19;20014;-60
2023/08/13 17:10:33;;;;;;;0.63;0.40;;;;;;;24.67;100.00;98395.38;15292450;19;20351;-60
2023/08/13 17:16:01;;;;;;;0.60;0.40;;;;;;;24.58;100.00;98384.81;15293057;19;20025;-62
2023/08/13 17:21:25;;;;;;;0.73;0.50;;;;;;;24.53;100.00;98378.38;15293694;19;20383;-62
2023/08/13 17:26:54;;;;;;;0.73;0.43;;;;;;;24.53;100.00;98368.19;15288396;19;20361;-61
2023/08/13 17:32:28;;;;;;;;;;;;;;;24.38;100.00;98365.25;15288166;19;20025;-61
2023/08/13 17:37:53;;;;;;;0.65;0.50;;;;;;;24.41;100.00;98364.72;15286238;19;19915;-63
2023/08/13 17:43:20;;;;;;;3.38;0.52;;;;;;;24.33;100.00;98376.16;15290996;19;20018;-61
2023/08/13 17:48:45;;;;;;;0.70;0.40;;;;;;;24.26;100.00;98368.09;15291755;19;20042;-61
2023/08/13 17:54:09;;;;;;;0.50;0.50;;;;;;;24.21;100.00;98390.88;15291408;19;20368;-62
2023/08/13 17:59:36;;;;;;;0.85;0.47;;;;;;;24.27;100.00;98402.78;15288369;19;20018;-61
2023/08/13 18:05:12;;;;;;;1.30;0.90;;;;;;;24.39;100.00;98391.69;15291680;19;20344;-52
2023/08/13 18:10:37;;;;;;;0.43;0.30;;;;;;;24.52;100.00;98405.06;15279917;19;20029;-53
2023/08/13 18:16:05;;;;;;;2.60;0.50;;;;;;;24.62;100.00;98413.50;15292627;19;20011;-57
2023/08/13 18:21:30;;;;;;;1.73;0.60;;;;;;;24.66;100.00;98421.25;15291512;19;20077;-54
2023/08/13 18:26:56;;;;;;;0.47;0.43;;;;;;;24.66;100.00;98415.75;15284920;19;20025;-53
2023/08/13 18:32:30;;;;;;;1.52;0.50;;;;;;;24.59;100.00;98411.25;15287003;19;20014;-54
2023/08/13 18:37:55;;;;;;;0.90;0.50;;;;;;;24.48;100.00;98425.97;15287339;19;20407;-62
2023/08/13 18:43:19;;;;;;;1.25;0.80;;;;;;;24.40;100.00;98426.41;15282801;19;20003;-59
2023/08/13 18:48:47;;;;;;;1.23;0.60;;;;;;;24.34;100.00;98428.25;15283837;19;20018;-60
2023/08/13 18:54:12;;;;;;;1.55;0.85;;;;;;;24.25;100.00;98441.59;15288332;19;20018;-61
2023/08/13 18:59:37;;;;;;;0.85;0.70;;;;;;;24.16;100.00;98445.84;15284266;19;20410;-61
2023/08/13 19:05:05;;;;;;;3.15;0.63;;;;;;;23.98;100.00;98445.00;15286602;19;20055;-61
2023/08/13 19:10:31;;;;;;;3.30;1.00;;;;;;;23.79;100.00;98446.28;15281370;19;20474;-60
2023/08/13 19:15:55;;;;;;;2.33;0.70;;;;;;;23.63;100.00;98454.22;15281848;19;20015;-60
2023/08/13 19:21:24;;;;;;;1.05;0.68;;;;;;;23.52;100.00;98457.88;15286977;19;20102;-59
2023/08/13 19:26:49;;;;;;;0.88;0.70;;;;;;;23.42;100.00;98471.41;15278661;19;20042;-58
2023/08/13 19:32:20;;;;;;;0.90;0.70;;;;;;;23.30;100.00;98479.69;15277219;19;20010;-58
2023/08/13 19:37:48;;;;;;;1.80;0.82;;;;;;;23.18;100.00;98482.44;15280688;19;20035;-60
2023/08/13 19:43:12;;;;;;;4.72;0.80;;;;;;;22.97;100.00;98484.75;15283273;19;20014;-58
2023/08/13 19:48:37;;;;;;;1.75;0.70;;;;;;;22.69;100.00;98482.75;15277146;19;20013;-58
2023/08/13 19:54:04;;;;;;;1.25;0.52;;;;;;;22.53;100.00;98479.63;15284964;19;20014;-57
2023/08/13 19:59:29;;;;;;;3.17;0.70;;;;;;;22.46;100.00;98487.97;15287195;19;20029;-59
2023/08/13 20:04:53;;;;;;;1.40;0.70;;;;;;;22.40;100.00;98480.63;15295005;19;20018;-58
2023/08/13 20:10:21;;;;;;;2.60;0.70;;;;;;;22.34;100.00;98487.09;15291742;19;20090;-58
2023/08/13 20:15:45;;;;;;;2.13;0.90;;;;;;;22.26;100.00;98484.72;15297196;19;20070;-60
2023/08/13 20:21:10;;;;;;;3.10;0.75;;;;;;;22.12;100.00;98490.41;15296153;19;20039;-57
2023/08/13 20:26:37;;;;;;;2.65;0.80;;;;;;;22.00;100.00;98489.53;15297575;19;20042;-61
2023/08/13 20:32:08;;;;;;;2.20;0.70;;;;;;;21.94;100.00;98504.16;15294703;19;20077;-57
2023/08/13 20:37:34;;;;;;;1.65;0.80;;;;;;;21.80;100.00;98501.63;15295195;19;20027;-58
2023/08/13 20:43:01;;;;;;;1.60;0.70;;;;;;;21.66;100.00;98502.88;15296713;19;20367;-60
2023/08/13 20:48:26;;;;;;;0.60;0.60;;;;;;;21.51;100.00;98509.56;15292584;19;20022;-58
2023/08/13 20:53:50;;;;;;;1.27;0.70;;;;;;;21.40;100.00;98516.66;15289386;19;20011;-60
2023/08/13 20:59:18;;;;;;;1.48;0.60;;;;;;;21.31;100.00;98507.06;15292136;19;20014;-58
2023/08/13 21:04:42;;;;;;;2.03;0.85;;;;;;;21.21;100.00;98502.16;15296173;19;20014;-57
2023/08/13 21:10:14;;;;;;;2.35;0.80;;;;;;;21.10;100.00;98511.13;15293462;19;20021;-56
2023/08/13 21:15:43;;;;;;;2.63;0.70;;;;;;;21.02;100.00;98504.06;15274765;19;20078;-57
2023/08/13 21:21:07;;;;;;;1.30;0.73;;;;;;;20.90;100.00;98495.72;15291299;19;20476;-58
2023/08/13 21:26:34;;;;;;;5.03;1.13;;;;;;;20.80;100.00;98503.63;15292595;19;20014;-55
2023/08/13 21:32:08;;;;;;;2.15;0.82;;;;;;;20.70;100.00;98509.59;15293867;19;20017;-57
2023/08/13 21:37:34;;;;;;;4.97;0.70;;;;;;;20.62;100.00;98510.75;15293181;19;20034;-57
2023/08/13 21:42:59;;;;;;;1.95;0.70;;;;;;;20.51;100.00;98514.22;15292416;19;20017;-60
2023/08/13 21:48:27;;;;;;;1.95;0.82;;;;;;;20.38;100.00;98514.31;15294345;19;20014;-60
2023/08/13 21:53:51;;;;;;;8.60;1.00;;;;;;;20.28;100.00;98523.88;15284322;19;20011;-60
2023/08/13 21:59:16;;;;;;;1.13;0.70;;;;;;;20.17;100.00;98528.13;15297233;19;20404;-60
2023/08/13 22:04:43;;;;;;;1.30;0.60;;;;;;;20.07;100.00;98530.53;15297014;19;20014;-58
2023/08/13 22:10:09;;;;;;;2.22;0.80;;;;;;;19.92;100.00;98524.50;15291973;19;20085;-57
2023/08/13 22:15:33;;;;;;;4.10;0.77;;;;;;;19.81;100.00;98539.69;15292736;19;20082;-59
2023/08/13 22:21:01;;;;;;;3.85;0.90;;;;;;;19.73;100.00;98534.47;15291788;19;20014;-58
2023/08/13 22:26:25;;;;;;;4.05;0.80;;;;;;;19.60;100.00;98535.38;15283253;19;20018;-58
2023/08/13 22:31:56;;;;;;;3.42;0.80;;;;;;;19.47;100.00;98548.03;15289132;19;20069;-57
2023/08/13 22:37:24;;;;;;;3.75;0.85;;;;;;;19.34;100.00;98540.75;15290706;19;20689;-58
2023/08/13 22:42:49;;;;;;;2.25;0.82;;;;;;;19.29;100.00;98535.06;15291687;19;20015;-58
2023/08/13 22:48:14;;;;;;;1.92;0.90;;;;;;;19.28;100.00;98541.59;15290822;19;20089;-58
2023/08/13 22:53:43;;;;;;;2.85;0.90;;;;;;;19.28;100.00;98540.75;15285458;19;20042;-57
2023/08/13 22:59:08;;;;;;;3.88;1.00;;;;;;;19.23;100.00;98539.50;15282009;19;20772;-58
2023/08/13 23:04:32;;;;;;;7.07;0.90;;;;;;;19.19;100.00;98545.63;15289853;19;20032;-58
2023/08/13 23:10:00;;;;;;;3.13;0.82;;;;;;;19.11;100.00;98540.38;15287206;19;20021;-58
2023/08/13 23:15:24;;;;;;;1.48;0.80;;;;;;;18.98;100.00;98533.91;15287478;19;20022;-56
2023/08/13 23:20:42;;;;;;;1.77;0.90;;;;;;;18.88;100.00;98530.72;15286024;19;20023;-58
2023/08/13 23:26:10;;;;;;;0.80;0.70;;;;;;;18.80;100.00;98526.34;15287763;19;20407;-56
2023/08/13 23:31:42;;;;;;;1.35;0.80;;;;;;;18.73;100.00;98531.81;15279416;19;20014;-59
2023/08/13 23:37:07;;;;;;;2.38;0.70;;;;;;;18.62;100.00;98524.25;15288570;19;20014;-54
2023/08/13 23:42:34;;;;;;;2.53;0.80;;;;;;;18.47;100.00;98530.78;15284211;19;20014;-57
2023/08/13 23:48:00;;;;;;;1.73;0.90;;;;;;;18.34;100.00;98536.22;15279804;19;20025;-57
2023/08/13 23:53:24;;;;;;;4.32;0.80;;;;;;;18.20;100.00;98545.44;15284360;19;20072;-57
2023/08/13 23:58:52;;;;;;;1.23;0.80;;;;;;;17.99;100.00;98559.03;15283590;19;20018;-58
